sensor_id;sensor_type;location;lat;lon;timestamp;pressure;altitude;pressure_sealevel;temperature;humidity
69145;BME280;56251;50.324;17.574;2023-04-06T00:00:52;102317.07;;;0.45;74.40
69145;BME280;56251;50.324;17.574;2023-04-06T00:02:08;102315.80;;;0.45;74.32
69145;BME280;56251;50.324;17.574;2023-04-06T00:03:59;102317.86;;;0.43;74.20
69145;BME280;56251;50.324;17.574;2023-04-06T00:05:14;102319.51;;;0.39;74.27
69145;BME280;56251;50.324;17.574;2023-04-06T00:07:05;102317.12;;;0.40;74.23
69145;BME280;56251;50.324;17.574;2023-04-06T00:08:25;102316.98;;;0.46;73.93
69145;BME280;56251;50.324;17.574;2023-04-06T00:10:12;102320.45;;;0.47;73.62
69145;BME280;56251;50.324;17.574;2023-04-06T00:11:32;102324.14;;;0.48;73.58
69145;BME280;56251;50.324;17.574;2023-04-06T00:13:18;102318.68;;;0.44;73.58
69145;BME280;56251;50.324;17.574;2023-04-06T00:14:38;102319.44;;;0.51;73.14
69145;BME280;56251;50.324;17.574;2023-04-06T00:16:25;102317.89;;;0.44;73.13
69145;BME280;56251;50.324;17.574;2023-04-06T00:17:46;102313.21;;;0.43;73.20
69145;BME280;56251;50.324;17.574;2023-04-06T00:19:32;102314.52;;;0.39;73.19
69145;BME280;56251;50.324;17.574;2023-04-06T00:20:52;102315.39;;;0.40;73.10
69145;BME280;56251;50.324;17.574;2023-04-06T00:22:38;102312.84;;;0.43;72.79
69145;BME280;56251;50.324;17.574;2023-04-06T00:23:59;102311.57;;;0.38;72.85
69145;BME280;56251;50.324;17.574;2023-04-06T00:25:44;102310.59;;;0.39;72.75
69145;BME280;56251;50.324;17.574;2023-04-06T00:27:05;102307.98;;;0.40;72.64
69145;BME280;56251;50.324;17.574;2023-04-06T00:28:51;102308.92;;;0.39;72.64
69145;BME280;56251;50.324;17.574;2023-04-06T00:30:11;102313.21;;;0.41;72.47
69145;BME280;56251;50.324;17.574;2023-04-06T00:31:58;102308.06;;;0.38;72.30
69145;BME280;56251;50.324;17.574;2023-04-06T00:33:18;102308.52;;;0.37;72.32
69145;BME280;56251;50.324;17.574;2023-04-06T00:35:05;102307.02;;;0.28;72.46
69145;BME280;56251;50.324;17.574;2023-04-06T00:36:26;102298.70;;;0.30;72.53
69145;BME280;56251;50.324;17.574;2023-04-06T00:38:12;102299.48;;;0.25;72.73
69145;BME280;56251;50.324;17.574;2023-04-06T00:39:32;102299.68;;;0.27;72.69
69145;BME280;56251;50.324;17.574;2023-04-06T00:41:18;102298.53;;;0.30;72.59
69145;BME280;56251;50.324;17.574;2023-04-06T00:42:39;102300.42;;;0.29;72.69
69145;BME280;56251;50.324;17.574;2023-04-06T00:44:26;102299.48;;;0.26;72.76
69145;BME280;56251;50.324;17.574;2023-04-06T00:45:45;102298.26;;;0.19;72.93
69145;BME280;56251;50.324;17.574;2023-04-06T00:47:33;102302.75;;;0.14;73.20
69145;BME280;56251;50.324;17.574;2023-04-06T00:48:51;102299.70;;;0.13;73.27
69145;BME280;56251;50.324;17.574;2023-04-06T00:50:40;102300.03;;;0.15;73.20
69145;BME280;56251;50.324;17.574;2023-04-06T00:51:58;102296.97;;;0.23;72.86
69145;BME280;56251;50.324;17.574;2023-04-06T00:53:46;102298.41;;;0.22;72.85
69145;BME280;56251;50.324;17.574;2023-04-06T00:55:05;102292.17;;;0.16;72.85
69145;BME280;56251;50.324;17.574;2023-04-06T00:56:52;102293.23;;;0.17;72.89
69145;BME280;56251;50.324;17.574;2023-04-06T00:58:12;102293.97;;;0.19;72.78
69145;BME280;56251;50.324;17.574;2023-04-06T00:59:59;102293.80;;;0.22;72.44
69145;BME280;56251;50.324;17.574;2023-04-06T01:01:18;102290.55;;;0.20;72.37
69145;BME280;56251;50.324;17.574;2023-04-06T01:03:05;102287.89;;;0.19;72.19
69145;BME280;56251;50.324;17.574;2023-04-06T01:04:25;102288.09;;;0.19;72.07
69145;BME280;56251;50.324;17.574;2023-04-06T01:06:12;102287.73;;;0.10;72.38
69145;BME280;56251;50.324;17.574;2023-04-06T01:07:31;102280.31;;;0.14;72.37
69145;BME280;56251;50.324;17.574;2023-04-06T01:09:19;102282.01;;;0.16;72.24
69145;BME280;56251;50.324;17.574;2023-04-06T01:10:38;102282.83;;;0.12;72.33
69145;BME280;56251;50.324;17.574;2023-04-06T01:12:25;102280.89;;;0.13;72.34
69145;BME280;56251;50.324;17.574;2023-04-06T01:13:44;102284.89;;;0.10;72.52
69145;BME280;56251;50.324;17.574;2023-04-06T01:15:33;102285.84;;;0.09;72.59
69145;BME280;56251;50.324;17.574;2023-04-06T01:16:51;102291.20;;;0.06;72.71
69145;BME280;56251;50.324;17.574;2023-04-06T01:18:39;102289.42;;;0.04;72.78
69145;BME280;56251;50.324;17.574;2023-04-06T01:19:58;102285.96;;;0.03;72.79
69145;BME280;56251;50.324;17.574;2023-04-06T01:21:47;102291.20;;;0.00;72.85
69145;BME280;56251;50.324;17.574;2023-04-06T01:23:04;102294.02;;;0.00;72.94
69145;BME280;56251;50.324;17.574;2023-04-06T01:24:58;102288.88;;;0.00;72.95
69145;BME280;56251;50.324;17.574;2023-04-06T01:26:11;102288.72;;;-0.01;72.96
69145;BME280;56251;50.324;17.574;2023-04-06T01:28:05;102288.27;;;0.06;72.68
69145;BME280;56251;50.324;17.574;2023-04-06T01:29:23;102285.96;;;0.05;72.54
69145;BME280;56251;50.324;17.574;2023-04-06T01:31:11;102288.15;;;0.02;72.70
69145;BME280;56251;50.324;17.574;2023-04-06T01:32:30;102284.39;;;0.05;72.59
69145;BME280;56251;50.324;17.574;2023-04-06T01:34:17;102289.01;;;0.02;72.49
69145;BME280;56251;50.324;17.574;2023-04-06T01:35:36;102284.52;;;0.04;72.29
69145;BME280;56251;50.324;17.574;2023-04-06T01:37:23;102286.25;;;-0.01;72.24
69145;BME280;56251;50.324;17.574;2023-04-06T01:38:42;102284.84;;;-0.03;72.32
69145;BME280;56251;50.324;17.574;2023-04-06T01:40:30;102286.83;;;-0.02;72.05
69145;BME280;56251;50.324;17.574;2023-04-06T01:41:49;102289.59;;;-0.06;72.04
69145;BME280;56251;50.324;17.574;2023-04-06T01:43:36;102286.90;;;-0.06;72.05
69145;BME280;56251;50.324;17.574;2023-04-06T01:44:55;102288.77;;;-0.12;72.01
69145;BME280;56251;50.324;17.574;2023-04-06T01:46:42;102290.89;;;-0.12;72.16
69145;BME280;56251;50.324;17.574;2023-04-06T01:48:02;102290.23;;;-0.14;72.28
69145;BME280;56251;50.324;17.574;2023-04-06T01:49:48;102289.17;;;-0.21;72.68
69145;BME280;56251;50.324;17.574;2023-04-06T01:51:08;102290.85;;;-0.27;73.06
69145;BME280;56251;50.324;17.574;2023-04-06T01:52:54;102294.52;;;-0.23;73.29
69145;BME280;56251;50.324;17.574;2023-04-06T01:54:14;102295.55;;;-0.18;73.17
69145;BME280;56251;50.324;17.574;2023-04-06T01:56:01;102292.21;;;-0.13;72.87
69145;BME280;56251;50.324;17.574;2023-04-06T01:57:20;102286.95;;;-0.11;72.71
69145;BME280;56251;50.324;17.574;2023-04-06T01:59:07;102285.51;;;-0.15;72.76
69145;BME280;56251;50.324;17.574;2023-04-06T02:00:27;102287.20;;;-0.18;72.76
69145;BME280;56251;50.324;17.574;2023-04-06T02:02:14;102291.72;;;-0.16;72.75
69145;BME280;56251;50.324;17.574;2023-04-06T02:03:33;102294.93;;;-0.14;72.59
69145;BME280;56251;50.324;17.574;2023-04-06T02:05:21;102289.99;;;-0.17;72.40
69145;BME280;56251;50.324;17.574;2023-04-06T02:06:39;102291.23;;;-0.19;72.40
69145;BME280;56251;50.324;17.574;2023-04-06T02:08:27;102288.88;;;-0.21;72.48
69145;BME280;56251;50.324;17.574;2023-04-06T02:09:46;102292.45;;;-0.24;72.46
69145;BME280;56251;50.324;17.574;2023-04-06T02:11:33;102287.90;;;-0.25;72.55
69145;BME280;56251;50.324;17.574;2023-04-06T02:12:52;102286.24;;;-0.27;72.67
69145;BME280;56251;50.324;17.574;2023-04-06T02:14:41;102289.45;;;-0.26;72.76
69145;BME280;56251;50.324;17.574;2023-04-06T02:16:00;102289.36;;;-0.28;72.93
69145;BME280;56251;50.324;17.574;2023-04-06T02:17:47;102280.90;;;-0.26;72.85
69145;BME280;56251;50.324;17.574;2023-04-06T02:19:08;102284.73;;;-0.25;72.93
69145;BME280;56251;50.324;17.574;2023-04-06T02:20:54;102279.87;;;-0.28;73.10
69145;BME280;56251;50.324;17.574;2023-04-06T02:22:15;102279.13;;;-0.24;73.04
69145;BME280;56251;50.324;17.574;2023-04-06T02:24:00;102280.78;;;-0.23;72.72
69145;BME280;56251;50.324;17.574;2023-04-06T02:25:21;102280.70;;;-0.24;72.61
69145;BME280;56251;50.324;17.574;2023-04-06T02:27:06;102284.02;;;-0.22;72.40
69145;BME280;56251;50.324;17.574;2023-04-06T02:28:27;102283.12;;;-0.21;72.18
69145;BME280;56251;50.324;17.574;2023-04-06T02:30:12;102283.09;;;-0.23;72.15
69145;BME280;56251;50.324;17.574;2023-04-06T02:31:34;102282.46;;;-0.29;72.03
69145;BME280;56251;50.324;17.574;2023-04-06T02:33:19;102282.91;;;-0.33;72.16
69145;BME280;56251;50.324;17.574;2023-04-06T02:34:40;102282.21;;;-0.30;72.21
69145;BME280;56251;50.324;17.574;2023-04-06T02:36:26;102284.77;;;-0.32;72.21
69145;BME280;56251;50.324;17.574;2023-04-06T02:37:46;102286.32;;;-0.30;72.15
69145;BME280;56251;50.324;17.574;2023-04-06T02:39:32;102282.99;;;-0.35;72.19
69145;BME280;56251;50.324;17.574;2023-04-06T02:40:53;102285.95;;;-0.36;72.32
69145;BME280;56251;50.324;17.574;2023-04-06T02:42:38;102286.94;;;-0.36;72.53
69145;BME280;56251;50.324;17.574;2023-04-06T02:43:59;102288.13;;;-0.38;72.61
69145;BME280;56251;50.324;17.574;2023-04-06T02:45:44;102287.97;;;-0.37;72.61
69145;BME280;56251;50.324;17.574;2023-04-06T02:47:06;102289.52;;;-0.39;72.49
69145;BME280;56251;50.324;17.574;2023-04-06T02:48:51;102292.23;;;-0.38;72.36
69145;BME280;56251;50.324;17.574;2023-04-06T02:50:12;102289.16;;;-0.36;72.18
69145;BME280;56251;50.324;17.574;2023-04-06T02:51:57;102288.02;;;-0.50;72.45
69145;BME280;56251;50.324;17.574;2023-04-06T02:53:18;102290.63;;;-0.51;72.69
69145;BME280;56251;50.324;17.574;2023-04-06T02:55:04;102290.79;;;-0.51;72.79
69145;BME280;56251;50.324;17.574;2023-04-06T02:56:25;102288.37;;;-0.48;72.79
69145;BME280;56251;50.324;17.574;2023-04-06T02:58:11;102287.20;;;-0.50;72.75
69145;BME280;56251;50.324;17.574;2023-04-06T02:59:32;102288.12;;;-0.49;72.78
69145;BME280;56251;50.324;17.574;2023-04-06T03:01:17;102290.87;;;-0.44;72.44
69145;BME280;56251;50.324;17.574;2023-04-06T03:02:38;102294.77;;;-0.51;72.64
69145;BME280;56251;50.324;17.574;2023-04-06T03:04:23;102290.23;;;-0.56;72.98
69145;BME280;56251;50.324;17.574;2023-04-06T03:05:45;102287.37;;;-0.55;72.98
69145;BME280;56251;50.324;17.574;2023-04-06T03:07:31;102292.99;;;-0.52;72.94
69145;BME280;56251;50.324;17.574;2023-04-06T03:08:51;102293.87;;;-0.50;72.87
69145;BME280;56251;50.324;17.574;2023-04-06T03:10:37;102297.13;;;-0.46;72.73
69145;BME280;56251;50.324;17.574;2023-04-06T03:11:58;102295.06;;;-0.45;72.66
69145;BME280;56251;50.324;17.574;2023-04-06T03:13:44;102294.60;;;-0.48;72.56
69145;BME280;56251;50.324;17.574;2023-04-06T03:15:04;102297.28;;;-0.44;72.49
69145;BME280;56251;50.324;17.574;2023-04-06T03:16:50;102298.59;;;-0.46;72.43
69145;BME280;56251;50.324;17.574;2023-04-06T03:18:11;102303.30;;;-0.47;72.25
69145;BME280;56251;50.324;17.574;2023-04-06T03:19:57;102306.99;;;-0.44;72.04
69145;BME280;56251;50.324;17.574;2023-04-06T03:21:17;102304.45;;;-0.43;71.72
69145;BME280;56251;50.324;17.574;2023-04-06T03:23:03;102303.91;;;-0.45;71.42
69145;BME280;56251;50.324;17.574;2023-04-06T03:24:25;102306.60;;;-0.52;71.67
69145;BME280;56251;50.324;17.574;2023-04-06T03:26:09;102305.16;;;-0.52;71.74
69145;BME280;56251;50.324;17.574;2023-04-06T03:27:31;102308.88;;;-0.49;71.65
69145;BME280;56251;50.324;17.574;2023-04-06T03:29:16;102310.34;;;-0.55;71.76
69145;BME280;56251;50.324;17.574;2023-04-06T03:30:38;102318.18;;;-0.57;71.90
69145;BME280;56251;50.324;17.574;2023-04-06T03:32:22;102320.10;;;-0.65;72.38
69145;BME280;56251;50.324;17.574;2023-04-06T03:33:44;102321.40;;;-0.71;72.94
69145;BME280;56251;50.324;17.574;2023-04-06T03:35:29;102316.71;;;-0.69;73.41
69145;BME280;56251;50.324;17.574;2023-04-06T03:36:51;102312.59;;;-0.78;73.52
69145;BME280;56251;50.324;17.574;2023-04-06T03:38:35;102312.63;;;-0.72;73.42
69145;BME280;56251;50.324;17.574;2023-04-06T03:39:57;102310.30;;;-0.71;73.37
69145;BME280;56251;50.324;17.574;2023-04-06T03:41:41;102311.27;;;-0.76;73.43
69145;BME280;56251;50.324;17.574;2023-04-06T03:43:04;102305.89;;;-0.77;73.65
69145;BME280;56251;50.324;17.574;2023-04-06T03:44:51;102308.95;;;-0.68;73.02
69145;BME280;56251;50.324;17.574;2023-04-06T03:46:10;102310.10;;;-0.68;73.01
69145;BME280;56251;50.324;17.574;2023-04-06T03:47:58;102307.44;;;-0.65;72.87
69145;BME280;56251;50.324;17.574;2023-04-06T03:49:17;102306.38;;;-0.63;72.55
69145;BME280;56251;50.324;17.574;2023-04-06T03:51:04;102310.45;;;-0.65;72.65
69145;BME280;56251;50.324;17.574;2023-04-06T03:52:23;102310.15;;;-0.67;72.69
69145;BME280;56251;50.324;17.574;2023-04-06T03:54:10;102309.23;;;-0.70;72.76
69145;BME280;56251;50.324;17.574;2023-04-06T03:55:29;102312.31;;;-0.72;72.88
69145;BME280;56251;50.324;17.574;2023-04-06T03:57:16;102312.39;;;-0.74;73.05
69145;BME280;56251;50.324;17.574;2023-04-06T03:58:36;102310.87;;;-0.74;73.16
69145;BME280;56251;50.324;17.574;2023-04-06T04:00:23;102314.49;;;-0.72;73.15
69145;BME280;56251;50.324;17.574;2023-04-06T04:01:42;102309.94;;;-0.68;73.11
69145;BME280;56251;50.324;17.574;2023-04-06T04:03:30;102313.52;;;-0.66;73.06
69145;BME280;56251;50.324;17.574;2023-04-06T04:04:49;102317.42;;;-0.67;73.06
69145;BME280;56251;50.324;17.574;2023-04-06T04:06:36;102314.63;;;-0.67;73.15
69145;BME280;56251;50.324;17.574;2023-04-06T04:07:55;102316.98;;;-0.65;73.11
69145;BME280;56251;50.324;17.574;2023-04-06T04:09:42;102316.45;;;-0.64;73.04
69145;BME280;56251;50.324;17.574;2023-04-06T04:11:01;102315.55;;;-0.60;72.86
69145;BME280;56251;50.324;17.574;2023-04-06T04:12:49;102315.95;;;-0.62;72.69
69145;BME280;56251;50.324;17.574;2023-04-06T04:14:08;102311.65;;;-0.59;72.49
69145;BME280;56251;50.324;17.574;2023-04-06T04:15:55;102313.59;;;-0.57;72.03
69145;BME280;56251;50.324;17.574;2023-04-06T04:17:14;102316.33;;;-0.58;71.88
69145;BME280;56251;50.324;17.574;2023-04-06T04:19:02;102316.64;;;-0.55;71.54
69145;BME280;56251;50.324;17.574;2023-04-06T04:20:20;102313.27;;;-0.61;71.35
69145;BME280;56251;50.324;17.574;2023-04-06T04:22:08;102312.70;;;-0.65;71.31
69145;BME280;56251;50.324;17.574;2023-04-06T04:23:27;102314.22;;;-0.66;71.50
69145;BME280;56251;50.324;17.574;2023-04-06T04:25:14;102314.91;;;-0.69;71.50
69145;BME280;56251;50.324;17.574;2023-04-06T04:26:34;102314.66;;;-0.70;71.60
69145;BME280;56251;50.324;17.574;2023-04-06T04:28:20;102314.95;;;-0.70;71.58
69145;BME280;56251;50.324;17.574;2023-04-06T04:29:40;102318.20;;;-0.68;71.57
69145;BME280;56251;50.324;17.574;2023-04-06T04:31:27;102318.23;;;-0.70;71.53
69145;BME280;56251;50.324;17.574;2023-04-06T04:32:46;102320.70;;;-0.67;71.49
69145;BME280;56251;50.324;17.574;2023-04-06T04:34:33;102321.41;;;-0.66;71.42
69145;BME280;56251;50.324;17.574;2023-04-06T04:35:52;102323.62;;;-0.68;71.47
69145;BME280;56251;50.324;17.574;2023-04-06T04:37:41;102321.28;;;-0.66;71.47
69145;BME280;56251;50.324;17.574;2023-04-06T04:38:59;102324.42;;;-0.64;71.44
69145;BME280;56251;50.324;17.574;2023-04-06T04:40:47;102321.88;;;-0.62;71.38
69145;BME280;56251;50.324;17.574;2023-04-06T04:42:09;102323.41;;;-0.58;71.27
69145;BME280;56251;50.324;17.574;2023-04-06T04:43:53;102321.52;;;-0.57;71.21
69145;BME280;56251;50.324;17.574;2023-04-06T04:45:20;102324.11;;;-0.58;71.12
69145;BME280;56251;50.324;17.574;2023-04-06T04:46:59;102323.31;;;-0.64;71.48
69145;BME280;56251;50.324;17.574;2023-04-06T04:48:28;102324.40;;;-0.57;71.46
69145;BME280;56251;50.324;17.574;2023-04-06T04:50:06;102324.16;;;-0.56;71.50
69145;BME280;56251;50.324;17.574;2023-04-06T04:51:34;102325.41;;;-0.62;71.67
69145;BME280;56251;50.324;17.574;2023-04-06T04:53:12;102332.82;;;-0.58;71.81
69145;BME280;56251;50.324;17.574;2023-04-06T04:54:43;102332.33;;;-0.57;71.87
69145;BME280;56251;50.324;17.574;2023-04-06T04:56:19;102323.96;;;-0.49;71.85
69145;BME280;56251;50.324;17.574;2023-04-06T04:57:49;102323.97;;;-0.43;71.77
69145;BME280;56251;50.324;17.574;2023-04-06T04:59:25;102324.88;;;-0.43;71.78
69145;BME280;56251;50.324;17.574;2023-04-06T05:00:56;102323.98;;;-0.37;71.82
69145;BME280;56251;50.324;17.574;2023-04-06T05:02:32;102323.79;;;-0.31;71.75
69145;BME280;56251;50.324;17.574;2023-04-06T05:04:02;102320.55;;;-0.26;71.80
69145;BME280;56251;50.324;17.574;2023-04-06T05:05:38;102315.09;;;-0.19;71.82
69145;BME280;56251;50.324;17.574;2023-04-06T05:07:09;102317.14;;;-0.17;71.89
69145;BME280;56251;50.324;17.574;2023-04-06T05:08:45;102322.98;;;-0.11;71.99
69145;BME280;56251;50.324;17.574;2023-04-06T05:10:16;102322.28;;;-0.11;72.08
69145;BME280;56251;50.324;17.574;2023-04-06T05:11:51;102321.84;;;-0.02;72.24
69145;BME280;56251;50.324;17.574;2023-04-06T05:13:22;102322.95;;;0.08;72.31
69145;BME280;56251;50.324;17.574;2023-04-06T05:14:57;102319.78;;;0.15;72.38
69145;BME280;56251;50.324;17.574;2023-04-06T05:16:29;102320.19;;;0.25;72.43
69145;BME280;56251;50.324;17.574;2023-04-06T05:18:04;102320.55;;;0.28;72.39
69145;BME280;56251;50.324;17.574;2023-04-06T05:19:35;102319.88;;;0.37;72.49
69145;BME280;56251;50.324;17.574;2023-04-06T05:21:11;102320.97;;;0.47;72.49
69145;BME280;56251;50.324;17.574;2023-04-06T05:22:42;102321.87;;;0.56;72.50
69145;BME280;56251;50.324;17.574;2023-04-06T05:24:18;102323.65;;;0.70;72.43
69145;BME280;56251;50.324;17.574;2023-04-06T05:25:49;102321.92;;;0.81;72.42
69145;BME280;56251;50.324;17.574;2023-04-06T05:27:24;102322.25;;;0.92;72.34
69145;BME280;56251;50.324;17.574;2023-04-06T05:28:56;102318.37;;;1.04;72.44
69145;BME280;56251;50.324;17.574;2023-04-06T05:30:31;102316.67;;;1.15;72.41
69145;BME280;56251;50.324;17.574;2023-04-06T05:32:02;102316.00;;;1.28;72.03
69145;BME280;56251;50.324;17.574;2023-04-06T05:33:37;102320.55;;;1.31;71.72
69145;BME280;56251;50.324;17.574;2023-04-06T05:35:09;102312.75;;;1.34;71.29
69145;BME280;56251;50.324;17.574;2023-04-06T05:36:43;102321.05;;;1.40;71.02
69145;BME280;56251;50.324;17.574;2023-04-06T05:38:15;102317.38;;;1.39;71.17
69145;BME280;56251;50.324;17.574;2023-04-06T05:39:49;102315.86;;;1.46;71.41
69145;BME280;56251;50.324;17.574;2023-04-06T05:41:21;102321.23;;;1.44;71.40
69145;BME280;56251;50.324;17.574;2023-04-06T05:42:56;102318.41;;;1.53;71.50
69145;BME280;56251;50.324;17.574;2023-04-06T05:44:28;102316.41;;;1.63;71.64
69145;BME280;56251;50.324;17.574;2023-04-06T05:46:03;102320.49;;;1.68;71.60
69145;BME280;56251;50.324;17.574;2023-04-06T05:47:34;102319.28;;;1.72;71.69
69145;BME280;56251;50.324;17.574;2023-04-06T05:49:10;102320.02;;;1.66;72.08
69145;BME280;56251;50.324;17.574;2023-04-06T05:50:40;102316.68;;;1.65;72.50
69145;BME280;56251;50.324;17.574;2023-04-06T05:52:16;102317.81;;;1.63;73.05
69145;BME280;56251;50.324;17.574;2023-04-06T05:53:47;102320.72;;;1.53;73.98
69145;BME280;56251;50.324;17.574;2023-04-06T05:55:22;102323.79;;;1.75;73.94
69145;BME280;56251;50.324;17.574;2023-04-06T05:56:54;102324.99;;;1.80;74.27
69145;BME280;56251;50.324;17.574;2023-04-06T05:58:29;102321.98;;;1.86;74.77
69145;BME280;56251;50.324;17.574;2023-04-06T06:00:00;102323.54;;;1.98;74.81
69145;BME280;56251;50.324;17.574;2023-04-06T06:01:35;102322.16;;;1.95;74.88
69145;BME280;56251;50.324;17.574;2023-04-06T06:03:06;102324.29;;;2.12;74.89
69145;BME280;56251;50.324;17.574;2023-04-06T06:04:42;102321.51;;;2.09;75.16
69145;BME280;56251;50.324;17.574;2023-04-06T06:06:14;102319.46;;;2.35;74.77
69145;BME280;56251;50.324;17.574;2023-04-06T06:07:48;102316.86;;;2.58;74.49
69145;BME280;56251;50.324;17.574;2023-04-06T06:09:20;102315.16;;;2.74;73.89
69145;BME280;56251;50.324;17.574;2023-04-06T06:10:55;102305.93;;;2.90;73.06
69145;BME280;56251;50.324;17.574;2023-04-06T06:12:27;102306.94;;;3.05;72.11
69145;BME280;56251;50.324;17.574;2023-04-06T06:14:01;102310.30;;;3.08;71.09
69145;BME280;56251;50.324;17.574;2023-04-06T06:15:34;102307.73;;;3.33;70.58
69145;BME280;56251;50.324;17.574;2023-04-06T06:17:08;102311.57;;;3.28;68.77
69145;BME280;56251;50.324;17.574;2023-04-06T06:18:41;102314.49;;;3.40;68.35
69145;BME280;56251;50.324;17.574;2023-04-06T06:20:15;102315.30;;;3.54;67.94
69145;BME280;56251;50.324;17.574;2023-04-06T06:21:48;102311.84;;;3.61;67.48
69145;BME280;56251;50.324;17.574;2023-04-06T06:23:21;102312.54;;;3.56;66.49
69145;BME280;56251;50.324;17.574;2023-04-06T06:24:54;102313.01;;;3.61;66.11
69145;BME280;56251;50.324;17.574;2023-04-06T06:26:27;102308.91;;;3.80;66.04
69145;BME280;56251;50.324;17.574;2023-04-06T06:28:01;102306.70;;;3.80;65.58
69145;BME280;56251;50.324;17.574;2023-04-06T06:29:35;102307.65;;;3.94;64.89
69145;BME280;56251;50.324;17.574;2023-04-06T06:31:07;102302.01;;;4.07;64.50
69145;BME280;56251;50.324;17.574;2023-04-06T06:32:41;102303.52;;;4.08;63.71
69145;BME280;56251;50.324;17.574;2023-04-06T06:34:13;102304.05;;;4.18;63.54
69145;BME280;56251;50.324;17.574;2023-04-06T06:35:47;102301.55;;;4.44;63.34
69145;BME280;56251;50.324;17.574;2023-04-06T06:37:20;102300.89;;;4.62;62.96
69145;BME280;56251;50.324;17.574;2023-04-06T06:38:53;102299.88;;;4.79;62.45
69145;BME280;56251;50.324;17.574;2023-04-06T06:40:26;102299.84;;;5.04;61.64
69145;BME280;56251;50.324;17.574;2023-04-06T06:41:59;102300.02;;;5.26;60.45
69145;BME280;56251;50.324;17.574;2023-04-06T06:43:33;102298.25;;;5.26;59.43
69145;BME280;56251;50.324;17.574;2023-04-06T06:45:07;102296.32;;;5.47;58.57
69145;BME280;56251;50.324;17.574;2023-04-06T06:46:39;102295.41;;;5.87;58.29
69145;BME280;56251;50.324;17.574;2023-04-06T06:48:14;102292.38;;;6.17;57.18
69145;BME280;56251;50.324;17.574;2023-04-06T06:49:46;102293.70;;;6.35;56.08
69145;BME280;56251;50.324;17.574;2023-04-06T06:51:21;102294.17;;;6.37;55.56
69145;BME280;56251;50.324;17.574;2023-04-06T06:52:52;102295.55;;;6.45;54.46
69145;BME280;56251;50.324;17.574;2023-04-06T06:54:27;102295.73;;;6.56;54.55
69145;BME280;56251;50.324;17.574;2023-04-06T06:55:59;102298.84;;;6.69;53.41
69145;BME280;56251;50.324;17.574;2023-04-06T06:57:33;102296.48;;;6.76;53.24
69145;BME280;56251;50.324;17.574;2023-04-06T06:59:05;102302.73;;;6.83;52.93
69145;BME280;56251;50.324;17.574;2023-04-06T07:00:40;102298.79;;;6.96;53.98
69145;BME280;56251;50.324;17.574;2023-04-06T07:02:12;102301.84;;;7.19;52.05
69145;BME280;56251;50.324;17.574;2023-04-06T07:03:46;102306.48;;;7.18;51.56
69145;BME280;56251;50.324;17.574;2023-04-06T07:05:18;102299.76;;;7.15;51.33
69145;BME280;56251;50.324;17.574;2023-04-06T07:06:52;102299.35;;;7.35;51.63
69145;BME280;56251;50.324;17.574;2023-04-06T07:08:25;102297.16;;;7.54;50.68
69145;BME280;56251;50.324;17.574;2023-04-06T07:09:59;102299.30;;;7.68;51.28
69145;BME280;56251;50.324;17.574;2023-04-06T07:11:32;102300.46;;;7.73;50.12
69145;BME280;56251;50.324;17.574;2023-04-06T07:13:05;102301.23;;;7.61;50.35
69145;BME280;56251;50.324;17.574;2023-04-06T07:14:38;102301.40;;;7.67;50.56
69145;BME280;56251;50.324;17.574;2023-04-06T07:16:12;102303.31;;;7.70;50.52
69145;BME280;56251;50.324;17.574;2023-04-06T07:17:45;102301.26;;;7.88;50.49
69145;BME280;56251;50.324;17.574;2023-04-06T07:19:18;102302.73;;;7.93;50.00
69145;BME280;56251;50.324;17.574;2023-04-06T07:20:51;102308.17;;;8.26;49.58
69145;BME280;56251;50.324;17.574;2023-04-06T07:22:25;102301.90;;;8.29;49.22
69145;BME280;56251;50.324;17.574;2023-04-06T07:23:57;102299.96;;;8.51;49.34
69145;BME280;56251;50.324;17.574;2023-04-06T07:25:31;102301.91;;;8.32;48.74
69145;BME280;56251;50.324;17.574;2023-04-06T07:27:04;102301.76;;;8.53;48.93
69145;BME280;56251;50.324;17.574;2023-04-06T07:28:37;102302.41;;;8.81;48.36
69145;BME280;56251;50.324;17.574;2023-04-06T07:30:11;102302.70;;;8.93;49.10
69145;BME280;56251;50.324;17.574;2023-04-06T07:31:44;102303.33;;;8.98;48.32
69145;BME280;56251;50.324;17.574;2023-04-06T07:33:17;102304.98;;;8.93;48.43
69145;BME280;56251;50.324;17.574;2023-04-06T07:34:51;102305.24;;;9.05;48.23
69145;BME280;56251;50.324;17.574;2023-04-06T07:36:24;102302.97;;;8.92;47.96
69145;BME280;56251;50.324;17.574;2023-04-06T07:37:57;102299.85;;;9.09;47.94
69145;BME280;56251;50.324;17.574;2023-04-06T07:39:30;102297.92;;;9.28;47.84
69145;BME280;56251;50.324;17.574;2023-04-06T07:41:04;102301.84;;;9.41;47.38
69145;BME280;56251;50.324;17.574;2023-04-06T07:42:37;102308.24;;;9.18;47.07
69145;BME280;56251;50.324;17.574;2023-04-06T07:44:11;102306.27;;;9.33;47.54
69145;BME280;56251;50.324;17.574;2023-04-06T07:45:43;102302.77;;;9.17;47.40
69145;BME280;56251;50.324;17.574;2023-04-06T07:47:17;102303.20;;;9.10;47.13
69145;BME280;56251;50.324;17.574;2023-04-06T07:48:50;102298.70;;;9.13;47.43
69145;BME280;56251;50.324;17.574;2023-04-06T07:50:24;102303.34;;;8.91;47.79
69145;BME280;56251;50.324;17.574;2023-04-06T07:51:57;102304.86;;;8.36;48.33
69145;BME280;56251;50.324;17.574;2023-04-06T07:53:30;102308.58;;;8.37;48.99
69145;BME280;56251;50.324;17.574;2023-04-06T07:55:04;102307.10;;;8.53;49.42
69145;BME280;56251;50.324;17.574;2023-04-06T07:56:37;102302.51;;;8.58;49.63
69145;BME280;56251;50.324;17.574;2023-04-06T07:58:10;102297.05;;;8.69;49.73
69145;BME280;56251;50.324;17.574;2023-04-06T07:59:45;102292.91;;;8.73;49.36
69145;BME280;56251;50.324;17.574;2023-04-06T08:01:17;102294.13;;;8.81;49.57
69145;BME280;56251;50.324;17.574;2023-04-06T08:02:52;102294.90;;;8.82;49.69
69145;BME280;56251;50.324;17.574;2023-04-06T08:04:23;102297.38;;;8.74;49.19